Time;durP1;ratioP1;P1;durP2;ratioP2;P2;SDS_P1;SDS_P2;PMS_P1;PMS_P2;Temp;Humidity;BMP_temperature;BMP_pressure;BME280_temperature;BME280_humidity;BME280_pressure;Samples;Min_cycle;Max_cycle;Signal;HPM_P1;HPM_P2
2023/12/01 00:01:49;;;;;;;19.17;15.90;;;3.50;99.90;;;;;;5030173;28;20685;-71
2023/12/01 00:04:14;;;;;;;17.80;15.97;;;3.50;99.90;;;;;;5040549;28;20182;-72
2023/12/01 00:06:40;;;;;;;18.63;16.30;;;3.60;99.90;;;;;;5039578;28;20185;-73
2023/12/01 00:09:05;;;;;;;19.13;16.80;;;3.60;99.90;;;;;;5050375;28;20867;-71
2023/12/01 00:11:31;;;;;;;18.17;16.27;;;3.60;99.90;;;;;;5017607;28;20185;-72
2023/12/01 00:13:56;;;;;;;16.57;14.90;;;3.60;99.90;;;;;;5040661;28;20256;-71
2023/12/01 00:16:22;;;;;;;19.27;15.07;;;3.70;99.90;;;;;;5031553;28;20183;-71
2023/12/01 00:18:47;;;;;;;20.17;15.70;;;3.60;99.90;;;;;;5031410;28;20198;-71
2023/12/01 00:21:13;;;;;;;18.30;15.07;;;3.50;99.90;;;;;;5021353;28;20253;-71
2023/12/01 00:23:38;;;;;;;19.33;16.47;;;3.60;99.90;;;;;;5031047;28;20182;-71
2023/12/01 00:26:04;;;;;;;19.17;16.50;;;3.60;99.90;;;;;;5031465;28;20228;-72
2023/12/01 00:28:29;;;;;;;21.07;15.70;;;3.60;99.90;;;;;;5032013;28;20328;-71
2023/12/01 00:30:55;;;;;;;20.13;15.60;;;3.60;99.90;;;;;;5020223;28;20232;-72
2023/12/01 00:33:20;;;;;;;14.90;13.30;;;3.60;99.90;;;;;;5031627;28;20178;-71
2023/12/01 00:35:46;;;;;;;18.20;16.00;;;3.70;99.90;;;;;;5031697;28;20257;-72
2023/12/01 00:38:11;;;;;;;19.07;16.30;;;3.70;99.90;;;;;;5050544;28;20209;-71
2023/12/01 00:40:37;;;;;;;18.43;16.37;;;3.70;99.90;;;;;;5037973;28;20667;-71
2023/12/01 00:43:02;;;;;;;19.87;15.53;;;3.70;99.90;;;;;;5028447;28;20197;-71
2023/12/01 00:45:28;;;;;;;17.40;15.70;;;3.70;99.90;;;;;;5031285;28;20261;-72
2023/12/01 00:47:53;;;;;;;16.73;14.47;;;3.70;99.90;;;;;;5031619;28;20261;-72
2023/12/01 00:50:19;;;;;;;18.27;16.27;;;3.70;99.90;;;;;;5031459;28;20197;-71
2023/12/01 00:52:44;;;;;;;17.57;15.57;;;3.70;99.90;;;;;;5023712;28;20252;-72
2023/12/01 00:55:10;;;;;;;19.00;15.97;;;3.70;99.90;;;;;;5026797;28;20239;-71
2023/12/01 00:57:35;;;;;;;18.10;16.20;;;3.70;99.90;;;;;;5031461;28;20197;-72
2023/12/01 01:00:03;;;;;;;19.10;15.70;;;3.70;99.90;;;;;;5030315;28;20218;-72
2023/12/01 01:02:31;;;;;;;17.03;15.27;;;3.80;99.90;;;;;;5030368;28;20173;-71
2023/12/01 01:04:56;;;;;;;15.87;14.27;;;3.80;99.90;;;;;;5025773;28;20428;-72
2023/12/01 01:07:22;;;;;;;16.50;14.90;;;3.70;99.90;;;;;;5035649;28;20949;-72
2023/12/01 01:09:47;;;;;;;16.90;14.57;;;3.70;99.90;;;;;;5031568;28;20564;-72
2023/12/01 01:12:13;;;;;;;16.23;14.53;;;3.70;99.90;;;;;;5031225;28;20186;-71
2023/12/01 01:14:38;;;;;;;16.37;14.67;;;3.70;99.90;;;;;;5033147;28;20184;-71
2023/12/01 01:17:05;;;;;;;16.07;14.50;;;3.60;99.90;;;;;;5041725;28;20299;-71
2023/12/01 01:19:30;;;;;;;21.63;15.60;;;3.60;99.90;;;;;;5032820;28;20221;-71
2023/12/01 01:21:56;;;;;;;18.53;15.40;;;3.60;99.90;;;;;;5037067;28;20941;-71
2023/12/01 01:24:22;;;;;;;19.00;15.80;;;3.60;99.90;;;;;;5040610;28;20177;-71
2023/12/01 01:26:47;;;;;;;18.83;16.87;;;3.60;99.90;;;;;;5037659;28;20187;-71
2023/12/01 01:29:13;;;;;;;18.27;15.10;;;3.60;99.90;;;;;;5039181;28;20277;-71
2023/12/01 01:31:38;;;;;;;20.93;16.10;;;3.60;99.90;;;;;;5034683;28;20606;-71
2023/12/01 01:34:04;;;;;;;18.40;16.57;;;3.70;99.90;;;;;;5041973;28;20174;-71
2023/12/01 01:36:29;;;;;;;18.87;16.80;;;3.50;99.90;;;;;;5037573;28;20620;-71
2023/12/01 01:38:55;;;;;;;17.27;15.00;;;3.50;99.90;;;;;;5038278;28;20202;-71
2023/12/01 01:41:21;;;;;;;18.47;16.50;;;3.50;99.90;;;;;;5033460;28;20174;-71
2023/12/01 01:43:46;;;;;;;19.63;15.63;;;3.40;99.90;;;;;;5031456;28;20167;-71
2023/12/01 01:46:12;;;;;;;17.10;15.30;;;3.30;99.90;;;;;;5033759;28;20777;-71
2023/12/01 01:48:38;;;;;;;19.43;15.70;;;3.30;99.90;;;;;;5036079;28;20256;-71
2023/12/01 01:51:09;;;;;;;17.30;15.40;;;3.30;99.90;;;;;;5035491;28;20521;-71
2023/12/01 01:53:37;;;;;;;20.90;16.00;;;3.30;99.90;;;;;;5054773;28;20197;-71
2023/12/01 01:56:03;;;;;;;16.57;14.90;;;3.30;99.90;;;;;;5048710;28;20996;-71
2023/12/01 01:58:28;;;;;;;20.07;17.70;;;3.30;99.90;;;;;;5032019;28;20544;-71
2023/12/01 02:00:54;;;;;;;19.20;16.43;;;3.20;99.90;;;;;;5033586;28;20194;-71
2023/12/01 02:03:21;;;;;;;20.33;16.13;;;3.10;99.90;;;;;;5045425;28;20169;-71
2023/12/01 02:05:49;;;;;;;20.10;18.07;;;3.10;99.90;;;;;;5031679;28;20174;-71
2023/12/01 02:08:22;;;;;;;21.10;16.93;;;3.10;99.90;;;;;;5035528;28;20443;-71
2023/12/01 02:10:47;;;;;;;17.83;14.97;;;3.00;99.90;;;;;;5037256;28;20441;-71
2023/12/01 02:13:14;;;;;;;19.30;15.17;;;2.90;99.90;;;;;;5021144;28;20775;-71
2023/12/01 02:15:43;;;;;;;22.97;16.03;;;3.00;99.90;;;;;;5038752;28;20170;-71
2023/12/01 02:18:26;;;;;;;19.27;17.30;;;2.90;99.90;;;;;;5039282;28;20465;-72
2023/12/01 02:20:53;;;;;;;21.47;15.30;;;2.90;99.90;;;;;;5044726;28;20445;-70
2023/12/01 02:23:20;;;;;;;17.87;15.50;;;3.00;99.90;;;;;;5034265;28;20769;-71
2023/12/01 02:25:46;;;;;;;20.03;16.00;;;2.90;99.90;;;;;;5027170;28;20434;-71
2023/12/01 02:28:13;;;;;;;22.60;16.60;;;2.90;99.90;;;;;;5030736;28;20433;-71
2023/12/01 02:30:41;;;;;;;17.83;15.93;;;2.90;99.90;;;;;;5042098;28;20452;-71
2023/12/01 02:33:07;;;;;;;19.27;16.67;;;2.90;99.90;;;;;;5032907;28;20794;-71
2023/12/01 02:35:32;;;;;;;18.30;16.00;;;2.90;99.90;;;;;;5035849;28;20430;-71
2023/12/01 02:37:59;;;;;;;17.47;15.67;;;2.90;99.90;;;;;;5021377;28;20682;-71
2023/12/01 02:40:26;;;;;;;21.43;15.97;;;3.00;99.90;;;;;;5036213;28;20221;-70
2023/12/01 02:42:53;;;;;;;16.87;15.07;;;3.00;99.90;;;;;;5038523;28;20421;-71
2023/12/01 02:45:20;;;;;;;18.10;15.37;;;3.00;99.90;;;;;;5033694;28;20482;-71
2023/12/01 02:47:47;;;;;;;22.80;16.17;;;2.90;99.90;;;;;;5027696;28;20441;-70
2023/12/01 02:50:13;;;;;;;19.50;16.63;;;2.90;99.90;;;;;;5032163;28;20495;-71
2023/12/01 02:52:41;;;;;;;21.80;16.93;;;2.90;99.90;;;;;;5033416;28;20432;-71
2023/12/01 02:55:07;;;;;;;20.20;16.70;;;2.90;99.90;;;;;;5033653;28;20475;-71
2023/12/01 02:57:34;;;;;;;18.43;15.30;;;2.90;99.90;;;;;;5032455;28;20467;-71
2023/12/01 03:00:00;;;;;;;21.67;16.67;;;3.00;99.90;;;;;;5034030;28;20468;-71
2023/12/01 03:02:28;;;;;;;18.20;16.23;;;2.90;99.90;;;;;;5049278;28;20816;-70
2023/12/01 03:04:54;;;;;;;20.30;16.20;;;3.00;99.90;;;;;;5048428;28;20166;-70
2023/12/01 03:07:19;;;;;;;22.30;16.77;;;3.00;99.90;;;;;;5033300;28;20930;-70
2023/12/01 03:09:45;;;;;;;16.73;14.70;;;3.00;99.90;;;;;;5020912;28;20205;-70
2023/12/01 03:12:10;;;;;;;17.47;15.57;;;2.90;99.90;;;;;;5016186;28;20645;-70
2023/12/01 03:14:36;;;;;;;17.60;15.17;;;3.00;99.90;;;;;;5025497;28;20599;-70
2023/12/01 03:17:02;;;;;;;18.30;15.87;;;3.00;99.90;;;;;;5029275;28;20193;-71
2023/12/01 03:19:27;;;;;;;17.53;15.73;;;3.00;99.90;;;;;;5021905;28;20468;-71
2023/12/01 03:21:53;;;;;;;18.90;15.40;;;3.00;99.90;;;;;;5041096;28;20161;-70
2023/12/01 03:24:18;;;;;;;19.50;16.80;;;3.00;99.90;;;;;;5053232;28;20170;-70
2023/12/01 03:26:44;;;;;;;19.93;16.07;;;2.80;99.90;;;;;;5046092;28;20184;-70
2023/12/01 03:29:10;;;;;;;18.20;16.27;;;2.80;99.90;;;;;;5028377;28;20268;-70
2023/12/01 03:31:35;;;;;;;19.70;17.30;;;2.90;99.90;;;;;;5028905;28;20190;-70
2023/12/01 03:34:04;;;;;;;18.30;15.80;;;2.90;99.90;;;;;;5032506;28;20429;-70
2023/12/01 03:36:29;;;;;;;18.43;15.10;;;2.90;99.90;;;;;;5032881;28;20563;-70
2023/12/01 03:38:55;;;;;;;19.10;14.27;;;2.80;99.90;;;;;;5031808;28;20456;-70
2023/12/01 03:41:20;;;;;;;17.10;14.37;;;2.80;99.90;;;;;;5040907;28;20178;-70
2023/12/01 03:43:46;;;;;;;18.13;14.90;;;2.80;99.90;;;;;;5013484;28;20721;-70
2023/12/01 03:46:11;;;;;;;19.70;15.80;;;2.80;99.90;;;;;;5021422;28;20174;-70
2023/12/01 03:48:37;;;;;;;17.90;14.90;;;2.80;99.90;;;;;;5030564;28;20178;-71
2023/12/01 03:51:02;;;;;;;16.97;15.10;;;2.80;99.90;;;;;;5027542;28;20174;-70
2023/12/01 03:53:31;;;;;;;18.27;16.17;;;2.80;99.90;;;;;;5027390;28;20641;-70
2023/12/01 03:55:58;;;;;;;18.13;16.07;;;2.80;99.90;;;;;;5037192;28;20266;-70
2023/12/01 03:58:24;;;;;;;23.03;16.47;;;2.80;99.90;;;;;;5038004;28;20539;-70
2023/12/01 04:00:51;;;;;;;18.50;15.90;;;2.80;99.90;;;;;;5032223;28;20825;-70
2023/12/01 04:03:17;;;;;;;18.93;16.10;;;2.80;99.90;;;;;;5032374;28;20423;-70
2023/12/01 04:05:42;;;;;;;20.03;16.47;;;2.80;99.90;;;;;;5016197;28;20418;-70
2023/12/01 04:08:08;;;;;;;18.20;14.37;;;2.90;99.90;;;;;;5034368;28;20178;-70
2023/12/01 04:10:33;;;;;;;19.53;15.33;;;2.90;99.90;;;;;;5048228;28;20216;-70
2023/12/01 04:13:07;;;;;;;16.03;13.90;;;2.90;99.90;;;;;;5018190;28;20178;-70
2023/12/01 04:15:33;;;;;;;17.23;15.53;;;2.90;99.90;;;;;;5032399;28;20170;-70
2023/12/01 04:18:06;;;;;;;19.10;15.63;;;2.90;99.90;;;;;;5031977;28;20459;-70
2023/12/01 04:20:41;;;;;;;18.30;14.87;;;2.90;99.90;;;;;;5015785;28;20486;-70
2023/12/01 04:23:10;;;;;;;17.43;15.53;;;2.80;99.90;;;;;;5032255;28;20837;-70
2023/12/01 04:25:39;;;;;;;19.23;14.00;;;2.80;99.90;;;;;;5032094;28;20417;-70
2023/12/01 04:28:06;;;;;;;18.53;15.63;;;2.70;99.90;;;;;;5031842;28;20427;-70
2023/12/01 04:30:33;;;;;;;18.10;15.57;;;2.70;99.90;;;;;;5031715;28;20448;-70
2023/12/01 04:32:59;;;;;;;16.67;14.70;;;2.60;99.90;;;;;;5025015;28;20429;-70
2023/12/01 04:35:31;;;;;;;17.37;14.67;;;2.70;99.90;;;;;;5020433;28;20421;-70
2023/12/01 04:37:58;;;;;;;17.47;15.70;;;2.70;99.90;;;;;;5031871;28;20543;-70
2023/12/01 04:40:27;;;;;;;16.90;15.07;;;2.80;99.90;;;;;;5030678;28;20456;-70
2023/12/01 04:42:53;;;;;;;19.83;17.00;;;2.70;99.90;;;;;;5014794;28;20588;-70
2023/12/01 04:45:20;;;;;;;17.83;15.53;;;2.70;99.90;;;;;;5030018;28;20504;-70
2023/12/01 04:47:50;;;;;;;17.50;15.40;;;2.70;99.90;;;;;;5031699;28;20475;-70
2023/12/01 04:50:18;;;;;;;17.47;15.77;;;2.70;99.90;;;;;;5036859;28;20447;-70
2023/12/01 04:52:46;;;;;;;16.67;14.90;;;2.80;99.90;;;;;;5038054;28;20820;-70
2023/12/01 04:55:14;;;;;;;16.70;14.90;;;2.70;99.90;;;;;;5031437;28;20954;-70
2023/12/01 04:57:43;;;;;;;19.10;15.37;;;2.80;99.90;;;;;;5030409;28;21052;-70
2023/12/01 05:00:19;;;;;;;17.73;15.97;;;2.70;99.90;;;;;;5031683;28;20560;-70
2023/12/01 05:02:59;;;;;;;18.10;14.30;;;2.70;99.90;;;;;;5031554;28;20435;-70
2023/12/01 05:05:27;;;;;;;18.77;17.03;;;2.70;99.90;;;;;;5014924;28;20423;-70
2023/12/01 05:07:57;;;;;;;17.83;16.00;;;2.60;99.90;;;;;;5015948;28;20430;-70
2023/12/01 05:10:24;;;;;;;17.40;15.57;;;2.70;99.90;;;;;;5017281;28;20481;-70
2023/12/01 05:12:51;;;;;;;16.07;14.47;;;2.70;99.90;;;;;;5048817;28;20419;-70
2023/12/01 05:15:18;;;;;;;20.00;15.83;;;2.70;99.90;;;;;;5032750;28;20984;-70
2023/12/01 05:18:07;;;;;;;15.23;13.67;;;2.70;99.90;;;;;;5019832;28;20497;-70
2023/12/01 05:20:33;;;;;;;15.30;13.80;;;2.70;99.90;;;;;;5015843;28;20445;-71
2023/12/01 05:23:09;;;;;;;16.03;14.43;;;2.70;99.90;;;;;;5015649;28;20504;-70
2023/12/01 05:25:37;;;;;;;16.57;14.97;;;2.70;99.90;;;;;;5027747;28;20478;-70
2023/12/01 05:28:04;;;;;;;16.40;14.67;;;2.70;99.90;;;;;;5035093;28;20421;-70
2023/12/01 05:30:40;;;;;;;16.60;14.60;;;2.70;99.90;;;;;;5026287;28;20560;-70
2023/12/01 05:33:06;;;;;;;15.70;14.20;;;2.70;99.90;;;;;;5015410;28;20435;-70
2023/12/01 05:35:33;;;;;;;16.43;14.83;;;2.60;99.90;;;;;;5031455;28;20516;-70
2023/12/01 05:37:59;;;;;;;15.57;14.00;;;2.60;99.90;;;;;;5034463;28;20452;-70
2023/12/01 05:40:26;;;;;;;16.73;15.00;;;2.70;99.90;;;;;;5034851;28;20452;-70
2023/12/01 05:42:53;;;;;;;15.70;14.10;;;2.70;99.90;;;;;;5034997;28;20170;-70
2023/12/01 05:45:23;;;;;;;17.10;15.30;;;2.70;99.90;;;;;;5029443;28;20811;-70
2023/12/01 05:47:52;;;;;;;16.47;14.50;;;2.70;99.90;;;;;;5015274;28;20461;-70
2023/12/01 05:50:20;;;;;;;15.40;13.90;;;2.80;99.90;;;;;;5015492;28;20950;-70
2023/12/01 05:52:46;;;;;;;14.00;12.70;;;2.80;99.90;;;;;;5015097;28;20429;-70
2023/12/01 05:55:17;;;;;;;15.23;13.63;;;2.80;99.90;;;;;;5048078;28;20805;-70
2023/12/01 05:57:47;;;;;;;16.30;14.67;;;2.80;99.90;;;;;;5029483;28;20452;-70
2023/12/01 06:00:15;;;;;;;15.17;13.77;;;2.80;99.90;;;;;;5047593;23;20492;-73
2023/12/01 06:02:50;;;;;;;16.57;14.87;;;2.80;99.90;;;;;;5039553;28;20432;-72
2023/12/01 06:05:18;;;;;;;15.20;13.80;;;2.80;99.90;;;;;;5036987;28;20507;-72
2023/12/01 06:07:45;;;;;;;15.70;14.20;;;2.80;99.90;;;;;;5039046;28;20768;-72
2023/12/01 06:10:11;;;;;;;15.53;13.97;;;2.80;99.90;;;;;;5032974;28;20434;-70
2023/12/01 06:12:38;;;;;;;16.70;15.00;;;2.70;99.90;;;;;;5033399;28;20440;-73
2023/12/01 06:15:09;;;;;;;14.90;13.50;;;2.70;99.90;;;;;;5042321;28;20440;-73
2023/12/01 06:17:35;;;;;;;16.20;14.50;;;2.60;99.90;;;;;;5033556;28;20460;-72
2023/12/01 06:20:01;;;;;;;16.23;14.67;;;2.60;99.90;;;;;;5042255;28;20828;-73
2023/12/01 06:22:27;;;;;;;19.57;17.57;;;2.70;99.90;;;;;;5034383;28;20417;-73
2023/12/01 06:24:53;;;;;;;18.53;16.63;;;2.60;99.90;;;;;;5016818;28;20203;-73
2023/12/01 06:27:18;;;;;;;17.23;15.40;;;2.60;99.90;;;;;;5020944;28;20174;-72
2023/12/01 06:29:44;;;;;;;15.80;14.30;;;2.60;99.90;;;;;;5034402;28;20465;-72
2023/12/01 06:32:10;;;;;;;17.70;15.90;;;2.60;99.90;;;;;;5043722;28;20273;-72
2023/12/01 06:34:35;;;;;;;16.53;14.87;;;2.60;99.90;;;;;;5047643;28;20858;-73
2023/12/01 06:37:01;;;;;;;16.00;14.10;;;2.70;99.90;;;;;;5031614;28;20706;-73
2023/12/01 06:39:27;;;;;;;16.20;14.70;;;2.80;99.90;;;;;;5035058;28;20593;-72
2023/12/01 06:41:53;;;;;;;21.97;18.57;;;2.80;99.90;;;;;;5033085;28;20200;-73
2023/12/01 06:44:20;;;;;;;32.53;24.63;;;2.80;99.90;;;;;;5041602;28;20983;-73
2023/12/01 06:46:45;;;;;;;35.90;26.50;;;2.80;99.90;;;;;;5032639;28;20437;-72
2023/12/01 06:49:11;;;;;;;26.07;19.40;;;2.80;99.90;;;;;;5037071;28;20503;-72
2023/12/01 06:51:37;;;;;;;22.50;18.77;;;2.70;99.90;;;;;;5043109;28;20173;-73
2023/12/01 06:54:03;;;;;;;22.83;19.30;;;2.70;99.90;;;;;;5039244;28;20520;-72
2023/12/01 06:56:28;;;;;;;21.57;18.40;;;2.60;99.90;;;;;;5030810;28;20667;-72
2023/12/01 06:58:54;;;;;;;24.03;20.80;;;2.60;99.90;;;;;;5030954;28;20527;-73
2023/12/01 07:01:20;;;;;;;22.17;18.57;;;2.50;99.90;;;;;;5032617;28;20206;-72
2023/12/01 07:03:46;;;;;;;20.67;17.60;;;2.60;99.90;;;;;;5039100;28;20814;-73
2023/12/01 07:06:12;;;;;;;19.13;17.00;;;2.50;99.90;;;;;;5033100;28;20616;-73
2023/12/01 07:08:41;;;;;;;21.90;18.33;;;2.60;99.90;;;;;;5030557;28;20186;-73
2023/12/01 07:11:07;;;;;;;24.07;21.67;;;2.60;99.90;;;;;;5032434;28;20511;-72
2023/12/01 07:13:33;;;;;;;27.07;20.70;;;2.50;99.90;;;;;;5038972;28;20503;-73
2023/12/01 07:15:58;;;;;;;18.50;16.60;;;2.50;99.90;;;;;;5046152;28;20546;-74
2023/12/01 07:18:25;;;;;;;22.97;18.20;;;2.60;99.90;;;;;;5035068;28;20259;-73
2023/12/01 07:20:50;;;;;;;23.70;18.37;;;2.60;99.90;;;;;;5033108;28;20568;-73
2023/12/01 07:23:19;;;;;;;20.10;17.87;;;2.60;99.90;;;;;;5032204;28;20433;-73
2023/12/01 07:25:48;;;;;;;18.60;16.40;;;2.60;99.90;;;;;;5026904;28;20254;-71
2023/12/01 07:28:14;;;;;;;17.90;16.00;;;2.60;99.90;;;;;;5034251;28;20433;-72
2023/12/01 07:30:41;;;;;;;21.03;18.13;;;2.70;99.90;;;;;;5032576;28;20460;-71
2023/12/01 07:33:08;;;;;;;18.57;16.57;;;2.70;99.90;;;;;;5041555;28;20646;-71
2023/12/01 07:35:34;;;;;;;18.70;16.80;;;2.80;99.90;;;;;;5032351;28;20594;-72
2023/12/01 07:38:00;;;;;;;18.43;16.33;;;2.90;99.90;;;;;;5033549;28;20820;-70
2023/12/01 07:40:27;;;;;;;34.63;18.30;;;2.80;99.90;;;;;;5024013;28;20456;-70
2023/12/01 07:42:57;;;;;;;26.60;17.13;;;2.80;99.90;;;;;;5031253;28;20425;-71
2023/12/01 07:45:23;;;;;;;16.73;13.77;;;2.80;99.90;;;;;;5032303;28;20823;-75
2023/12/01 07:47:51;;;;;;;19.20;16.30;;;2.80;99.90;;;;;;5040683;28;20489;-71
2023/12/01 07:50:17;;;;;;;18.43;15.17;;;2.80;99.90;;;;;;5040520;28;20463;-73
2023/12/01 07:52:47;;;;;;;19.47;17.57;;;2.80;99.90;;;;;;5032121;28;20456;-74
2023/12/01 07:55:13;;;;;;;18.17;15.90;;;2.80;99.90;;;;;;5041276;28;20544;-71
2023/12/01 07:57:39;;;;;;;15.40;13.73;;;2.80;99.90;;;;;;5041217;28;20977;-71
2023/12/01 08:00:14;;;;;;;18.73;14.70;;;2.70;99.90;;;;;;5041714;28;20251;-71
2023/12/01 08:02:46;;;;;;;17.13;14.60;;;2.80;99.90;;;;;;5028966;28;20523;-71
2023/12/01 08:05:15;;;;;;;18.17;13.70;;;2.80;99.90;;;;;;5035570;28;20570;-70
2023/12/01 08:07:51;;;;;;;16.37;14.50;;;2.80;99.90;;;;;;5029505;28;20433;-71
2023/12/01 08:10:20;;;;;;;14.03;12.63;;;2.70;99.90;;;;;;5032980;28;20539;-70
2023/12/01 08:12:47;;;;;;;15.47;13.87;;;2.70;99.90;;;;;;5036764;28;21007;-71
2023/12/01 08:15:12;;;;;;;17.40;13.93;;;2.80;99.90;;;;;;5032150;28;20952;-70
2023/12/01 08:17:39;;;;;;;19.83;13.10;;;2.70;99.90;;;;;;5029732;28;20457;-71
2023/12/01 08:20:08;;;;;;;20.80;14.60;;;2.80;99.90;;;;;;5034771;28;20259;-70
2023/12/01 08:22:37;;;;;;;20.30;15.00;;;2.80;99.90;;;;;;5027394;28;20429;-71
2023/12/01 08:25:03;;;;;;;18.23;14.87;;;2.80;99.90;;;;;;5025618;28;20435;-71
2023/12/01 08:27:29;;;;;;;19.20;14.20;;;2.90;99.90;;;;;;5028721;28;20526;-71
2023/12/01 08:29:54;;;;;;;17.47;14.03;;;2.90;99.90;;;;;;5031531;28;20510;-71
2023/12/01 08:32:20;;;;;;;17.10;14.53;;;2.90;99.90;;;;;;5033565;28;20193;-70
2023/12/01 08:34:45;;;;;;;19.30;14.40;;;2.90;99.90;;;;;;5033264;28;20216;-70
2023/12/01 08:37:11;;;;;;;15.10;13.50;;;3.00;99.90;;;;;;5031915;28;20210;-71
2023/12/01 08:39:37;;;;;;;15.40;13.40;;;2.90;99.90;;;;;;5033563;28;20203;-71
2023/12/01 08:42:02;;;;;;;28.53;18.10;;;3.00;99.90;;;;;;5034237;28;21037;-69
2023/12/01 08:44:28;;;;;;;35.70;21.07;;;3.00;99.90;;;;;;5033755;28;20178;-70
2023/12/01 08:46:54;;;;;;;32.73;20.20;;;3.00;99.90;;;;;;5036217;28;20182;-70
2023/12/01 08:49:19;;;;;;;22.30;16.57;;;3.00;99.90;;;;;;5041703;28;20197;-71
2023/12/01 08:51:45;;;;;;;27.20;18.23;;;3.10;99.90;;;;;;5037704;28;20236;-69
2023/12/01 08:54:10;;;;;;;34.37;24.87;;;3.20;99.90;;;;;;5035586;28;20190;-69
2023/12/01 08:56:36;;;;;;;19.03;17.00;;;3.20;99.90;;;;;;5035777;28;20185;-70
2023/12/01 08:59:01;;;;;;;16.37;14.23;;;3.30;99.90;;;;;;5044478;28;20189;-70
2023/12/01 09:01:27;;;;;;;17.60;13.90;;;3.40;99.90;;;;;;5032358;28;20186;-70
2023/12/01 09:03:53;;;;;;;17.90;14.23;;;3.50;99.90;;;;;;5031226;28;20700;-69
2023/12/01 09:06:19;;;;;;;15.70;13.37;;;3.60;99.90;;;;;;5035336;28;20228;-71
2023/12/01 09:08:44;;;;;;;15.67;13.20;;;3.60;99.90;;;;;;5032629;28;20192;-70
2023/12/01 09:11:10;;;;;;;15.10;12.77;;;3.70;99.90;;;;;;5046348;28;20835;-70
2023/12/01 09:13:36;;;;;;;17.50;13.10;;;3.60;99.90;;;;;;5035797;28;20179;-70
2023/12/01 09:16:02;;;;;;;17.83;14.20;;;3.50;99.90;;;;;;5039325;28;20274;-70
2023/12/01 09:18:29;;;;;;;18.77;14.80;;;3.60;99.90;;;;;;5036508;28;20817;-71
2023/12/01 09:20:55;;;;;;;17.90;14.80;;;3.60;99.90;;;;;;5039251;28;20197;-71
2023/12/01 09:23:20;;;;;;;17.13;12.30;;;3.50;99.90;;;;;;5042563;28;20437;-70
2023/12/01 09:25:46;;;;;;;17.73;12.70;;;3.70;99.90;;;;;;5032138;28;20219;-71
2023/12/01 09:28:12;;;;;;;14.63;11.73;;;3.80;99.90;;;;;;5040850;28;20703;-70
2023/12/01 09:30:38;;;;;;;22.40;13.50;;;3.80;99.90;;;;;;5034628;28;20227;-69
2023/12/01 09:33:03;;;;;;;28.67;14.37;;;3.90;99.90;;;;;;5034019;28;20220;-69
2023/12/01 09:35:29;;;;;;;33.50;20.23;;;4.00;99.90;;;;;;5035563;28;20436;-71
2023/12/01 09:37:55;;;;;;;26.90;17.80;;;3.90;99.90;;;;;;5032152;28;20204;-71
2023/12/01 09:40:21;;;;;;;24.60;16.90;;;3.90;99.90;;;;;;5040275;28;20201;-70
2023/12/01 09:42:49;;;;;;;21.80;13.30;;;3.90;99.90;;;;;;5039909;28;20224;-70
2023/12/01 09:45:20;;;;;;;19.43;14.20;;;4.00;99.90;;;;;;5033713;28;20527;-70
2023/12/01 09:47:51;;;;;;;18.30;12.97;;;3.90;99.90;;;;;;5038787;28;20925;-71
2023/12/01 09:50:17;;;;;;;27.37;14.83;;;3.90;99.90;;;;;;5036011;28;20452;-70
2023/12/01 09:52:43;;;;;;;17.10;12.60;;;3.90;99.90;;;;;;5039798;28;20961;-71
2023/12/01 09:55:08;;;;;;;13.57;11.73;;;3.80;99.90;;;;;;5031372;28;20448;-71
2023/12/01 09:57:34;;;;;;;13.53;12.23;;;3.70;99.90;;;;;;5030780;28;20554;-71
2023/12/01 10:00:00;;;;;;;12.90;11.60;;;3.70;99.90;;;;;;5035545;28;20244;-70
2023/12/01 10:02:26;;;;;;;19.83;12.23;;;3.80;99.90;;;;;;5041293;28;20638;-71
2023/12/01 10:05:00;;;;;;;21.70;15.53;;;3.80;99.90;;;;;;5036762;28;20551;-70
2023/12/01 10:07:26;;;;;;;21.87;14.83;;;3.70;99.90;;;;;;5030412;28;20800;-70
2023/12/01 10:09:51;;;;;;;17.40;13.13;;;3.70;99.90;;;;;;5040861;28;20476;-70
2023/12/01 10:12:17;;;;;;;15.90;13.50;;;3.80;99.90;;;;;;5041371;28;20178;-71
2023/12/01 10:14:43;;;;;;;18.67;14.70;;;3.80;99.90;;;;;;5035322;28;20547;-70
2023/12/01 10:17:10;;;;;;;15.33;13.10;;;3.90;99.90;;;;;;5032927;28;20213;-70
2023/12/01 10:19:47;;;;;;;15.03;12.60;;;3.80;99.90;;;;;;5040425;28;20199;-70
2023/12/01 10:22:17;;;;;;;18.00;13.37;;;3.70;99.90;;;;;;5041052;28;20447;-71
2023/12/01 10:25:04;;;;;;;16.80;13.60;;;3.70;99.90;;;;;;5035987;28;20993;-71
2023/12/01 10:27:31;;;;;;;15.53;12.37;;;3.70;99.90;;;;;;5031332;28;20440;-70
2023/12/01 10:30:13;;;;;;;13.90;12.47;;;3.70;99.90;;;;;;5034917;28;20453;-71
2023/12/01 10:32:40;;;;;;;14.03;11.90;;;3.80;99.90;;;;;;5028900;28;20476;-70
2023/12/01 10:35:06;;;;;;;15.70;12.50;;;3.90;99.90;;;;;;5046705;28;20449;-70
2023/12/01 10:37:32;;;;;;;15.60;14.03;;;3.90;99.90;;;;;;5046838;28;20542;-70
2023/12/01 10:40:00;;;;;;;15.27;13.67;;;3.90;99.90;;;;;;5032300;28;20608;-71
2023/12/01 10:42:27;;;;;;;12.53;11.10;;;3.90;99.90;;;;;;5040641;28;20421;-70
2023/12/01 10:44:54;;;;;;;13.07;11.63;;;3.70;99.90;;;;;;5041547;28;20431;-70
2023/12/01 10:47:21;;;;;;;15.90;13.27;;;3.60;99.90;;;;;;5035071;28;20513;-71
2023/12/01 10:49:49;;;;;;;14.87;13.37;;;3.70;99.90;;;;;;5030694;28;20460;-70
2023/12/01 10:52:15;;;;;;;14.50;12.80;;;3.70;99.90;;;;;;5044114;28;20420;-70
2023/12/01 10:54:43;;;;;;;13.37;11.97;;;3.70;99.90;;;;;;5030905;28;20451;-71
2023/12/01 10:57:16;;;;;;;13.27;11.83;;;3.70;99.90;;;;;;5039367;28;20460;-71
2023/12/01 10:59:52;;;;;;;12.67;11.03;;;3.80;99.90;;;;;;5031047;28;20471;-71
2023/12/01 11:02:18;;;;;;;14.63;12.23;;;3.80;99.90;;;;;;5040439;28;20420;-71
2023/12/01 11:04:45;;;;;;;14.77;12.30;;;3.70;99.90;;;;;;5032964;28;20433;-70
2023/12/01 11:07:22;;;;;;;14.27;11.33;;;3.60;99.90;;;;;;5045616;28;20456;-71
2023/12/01 11:10:22;;;;;;;13.03;11.60;;;3.70;99.90;;;;;;5026157;28;20449;-71
2023/12/01 11:13:12;;;;;;;16.00;10.40;;;3.70;99.90;;;;;;5039049;28;20456;-70
2023/12/01 11:15:39;;;;;;;13.20;11.63;;;3.70;99.90;;;;;;5033421;28;20938;-70
2023/12/01 11:18:08;;;;;;;14.73;13.23;;;3.70;99.90;;;;;;5031971;28;20453;-70
2023/12/01 11:20:40;;;;;;;15.60;12.63;;;3.60;99.90;;;;;;5037213;28;20444;-68
2023/12/01 11:23:30;;;;;;;19.43;13.03;;;3.60;99.90;;;;;;5040319;28;20436;-67
2023/12/01 11:26:05;;;;;;;15.40;13.57;;;3.60;99.90;;;;;;5038954;28;20786;-67
2023/12/01 11:31:23;;;;;;;15.03;13.40;;;3.60;99.90;;;;;;5031076;28;20456;-68
2023/12/01 11:33:50;;;;;;;18.83;13.80;;;3.50;99.90;;;;;;5030916;28;20432;-70
2023/12/01 11:36:28;;;;;;;17.80;14.33;;;3.40;99.90;;;;;;5043512;28;20463;-66
2023/12/01 11:41:47;;;;;;;17.80;13.57;;;3.60;99.90;;;;;;5036755;28;20436;-69
2023/12/01 11:44:18;;;;;;;19.90;14.00;;;3.60;99.90;;;;;;5038999;28;20882;-70
2023/12/01 11:46:45;;;;;;;18.90;14.73;;;3.60;99.90;;;;;;5036719;28;20511;-70
2023/12/01 11:49:14;;;;;;;19.57;15.80;;;3.50;99.90;;;;;;5038898;28;20452;-70
2023/12/01 11:51:43;;;;;;;20.00;16.10;;;3.60;99.90;;;;;;5027796;28;20776;-70
2023/12/01 11:54:09;;;;;;;18.43;15.20;;;3.50;99.90;;;;;;5038243;28;20795;-70
2023/12/01 11:56:35;;;;;;;21.47;16.07;;;3.50;99.90;;;;;;5036295;28;20420;-70
2023/12/01 11:59:02;;;;;;;24.03;16.47;;;3.50;99.90;;;;;;5012380;28;20429;-71
2023/12/01 12:01:30;;;;;;;20.00;16.23;;;3.50;99.90;;;;;;5039022;28;20234;-69
2023/12/01 12:03:56;;;;;;;21.50;15.30;;;3.50;99.90;;;;;;5039333;28;20460;-70
2023/12/01 12:06:23;;;;;;;26.90;18.30;;;3.60;99.90;;;;;;5040175;28;20970;-69
2023/12/01 12:08:52;;;;;;;21.93;17.23;;;3.60;99.90;;;;;;5031647;28;20444;-70
2023/12/01 12:11:19;;;;;;;29.30;21.53;;;3.40;99.90;;;;;;5036663;28;20550;-70
2023/12/01 12:13:56;;;;;;;25.97;20.60;;;3.30;99.90;;;;;;5038444;28;20424;-70
2023/12/01 12:16:26;;;;;;;27.33;20.20;;;3.20;99.90;;;;;;5012466;28;20414;-70
2023/12/01 12:18:51;;;;;;;26.47;19.90;;;3.20;99.90;;;;;;5016854;28;20550;-70
2023/12/01 12:21:17;;;;;;;27.37;21.27;;;3.20;99.90;;;;;;5043109;28;20444;-70
2023/12/01 12:23:43;;;;;;;27.77;20.50;;;3.20;99.90;;;;;;5036399;28;20183;-70
2023/12/01 12:26:16;;;;;;;30.27;21.70;;;3.20;99.90;;;;;;5031964;28;20812;-70
2023/12/01 12:28:43;;;;;;;29.80;21.47;;;3.20;99.90;;;;;;5038629;28;20185;-70
2023/12/01 12:31:09;;;;;;;28.80;20.70;;;3.20;99.90;;;;;;5043383;28;20444;-70
2023/12/01 12:33:35;;;;;;;32.00;20.20;;;3.20;99.90;;;;;;5036527;28;20444;-70
2023/12/01 12:36:01;;;;;;;30.20;22.30;;;3.20;99.90;;;;;;5028291;28;20444;-70
2023/12/01 12:38:27;;;;;;;28.53;21.33;;;3.10;99.90;;;;;;5037885;28;20470;-70
2023/12/01 12:40:53;;;;;;;32.80;22.23;;;3.00;99.90;;;;;;5035592;28;20457;-70
2023/12/01 12:43:20;;;;;;;28.23;21.70;;;2.90;99.90;;;;;;5039612;28;20169;-70